sensor_id;sensor_type;location;lat;lon;timestamp;P1;durP1;ratioP1;P2;durP2;ratioP2
15629;SDS011;7914;50.842;0.166;2022-12-07T00:01:06;1.60;;;1.60;;
15629;SDS011;7914;50.842;0.166;2022-12-07T00:03:33;2.20;;;2.10;;
15629;SDS011;7914;50.842;0.166;2022-12-07T00:05:59;2.20;;;2.10;;
15629;SDS011;7914;50.842;0.166;2022-12-07T00:08:25;1.87;;;1.87;;
15629;SDS011;7914;50.842;0.166;2022-12-07T00:10:51;2.10;;;2.00;;
15629;SDS011;7914;50.842;0.166;2022-12-07T00:13:17;2.10;;;2.00;;
15629;SDS011;7914;50.842;0.166;2022-12-07T00:15:43;1.90;;;1.90;;
15629;SDS011;7914;50.842;0.166;2022-12-07T00:18:09;2.37;;;2.27;;
15629;SDS011;7914;50.842;0.166;2022-12-07T00:20:35;2.40;;;2.30;;
15629;SDS011;7914;50.842;0.166;2022-12-07T00:23:01;2.40;;;2.30;;
15629;SDS011;7914;50.842;0.166;2022-12-07T00:25:26;2.67;;;2.57;;
15629;SDS011;7914;50.842;0.166;2022-12-07T00:27:52;2.43;;;2.33;;
15629;SDS011;7914;50.842;0.166;2022-12-07T00:30:21;2.40;;;2.30;;
15629;SDS011;7914;50.842;0.166;2022-12-07T00:32:47;2.60;;;2.50;;
15629;SDS011;7914;50.842;0.166;2022-12-07T00:35:13;2.63;;;2.53;;
15629;SDS011;7914;50.842;0.166;2022-12-07T00:37:39;3.40;;;3.30;;
15629;SDS011;7914;50.842;0.166;2022-12-07T00:40:05;3.47;;;3.37;;
15629;SDS011;7914;50.842;0.166;2022-12-07T00:42:31;3.40;;;3.30;;
15629;SDS011;7914;50.842;0.166;2022-12-07T00:44:58;3.33;;;3.23;;
15629;SDS011;7914;50.842;0.166;2022-12-07T00:47:23;3.60;;;3.50;;
15629;SDS011;7914;50.842;0.166;2022-12-07T00:49:49;3.90;;;3.80;;
15629;SDS011;7914;50.842;0.166;2022-12-07T00:52:14;4.30;;;4.10;;
15629;SDS011;7914;50.842;0.166;2022-12-07T00:54:40;3.67;;;3.57;;
15629;SDS011;7914;50.842;0.166;2022-12-07T00:57:06;3.90;;;3.80;;
15629;SDS011;7914;50.842;0.166;2022-12-07T00:59:31;3.70;;;3.60;;
15629;SDS011;7914;50.842;0.166;2022-12-07T01:01:57;3.90;;;3.80;;
15629;SDS011;7914;50.842;0.166;2022-12-07T01:04:22;3.90;;;3.80;;
15629;SDS011;7914;50.842;0.166;2022-12-07T01:06:48;3.73;;;3.63;;
15629;SDS011;7914;50.842;0.166;2022-12-07T01:09:14;3.30;;;3.20;;
15629;SDS011;7914;50.842;0.166;2022-12-07T01:11:39;3.70;;;3.60;;
15629;SDS011;7914;50.842;0.166;2022-12-07T01:14:05;3.10;;;3.00;;
15629;SDS011;7914;50.842;0.166;2022-12-07T01:16:32;3.30;;;3.20;;
15629;SDS011;7914;50.842;0.166;2022-12-07T01:18:58;3.17;;;3.07;;
15629;SDS011;7914;50.842;0.166;2022-12-07T01:21:29;3.07;;;2.97;;
15629;SDS011;7914;50.842;0.166;2022-12-07T01:24:02;3.13;;;3.03;;
15629;SDS011;7914;50.842;0.166;2022-12-07T01:26:29;3.30;;;3.20;;
15629;SDS011;7914;50.842;0.166;2022-12-07T01:28:54;3.10;;;3.00;;
15629;SDS011;7914;50.842;0.166;2022-12-07T01:31:21;3.10;;;3.00;;
15629;SDS011;7914;50.842;0.166;2022-12-07T01:33:49;3.17;;;3.07;;
15629;SDS011;7914;50.842;0.166;2022-12-07T01:36:21;3.23;;;3.13;;
15629;SDS011;7914;50.842;0.166;2022-12-07T01:38:49;3.27;;;3.17;;
15629;SDS011;7914;50.842;0.166;2022-12-07T01:41:18;3.40;;;3.30;;
15629;SDS011;7914;50.842;0.166;2022-12-07T01:46:31;3.50;;;3.40;;
15629;SDS011;7914;50.842;0.166;2022-12-07T01:48:57;3.50;;;3.40;;
15629;SDS011;7914;50.842;0.166;2022-12-07T01:51:23;3.70;;;3.60;;
15629;SDS011;7914;50.842;0.166;2022-12-07T01:53:49;3.70;;;3.60;;
15629;SDS011;7914;50.842;0.166;2022-12-07T01:56:17;3.43;;;3.33;;
15629;SDS011;7914;50.842;0.166;2022-12-07T01:58:45;3.47;;;3.37;;
15629;SDS011;7914;50.842;0.166;2022-12-07T02:01:12;3.43;;;3.33;;
15629;SDS011;7914;50.842;0.166;2022-12-07T02:03:40;3.50;;;3.40;;
15629;SDS011;7914;50.842;0.166;2022-12-07T02:06:07;3.60;;;3.50;;
15629;SDS011;7914;50.842;0.166;2022-12-07T02:08:35;3.63;;;3.53;;
15629;SDS011;7914;50.842;0.166;2022-12-07T02:11:04;3.37;;;3.27;;
15629;SDS011;7914;50.842;0.166;2022-12-07T02:13:32;3.40;;;3.30;;
15629;SDS011;7914;50.842;0.166;2022-12-07T02:29:17;3.50;;;3.40;;
15629;SDS011;7914;50.842;0.166;2022-12-07T02:32:00;3.77;;;3.67;;
15629;SDS011;7914;50.842;0.166;2022-12-07T02:34:49;3.70;;;3.60;;
15629;SDS011;7914;50.842;0.166;2022-12-07T02:39:59;4.07;;;3.97;;
15629;SDS011;7914;50.842;0.166;2022-12-07T02:42:53;4.63;;;4.43;;
15629;SDS011;7914;50.842;0.166;2022-12-07T02:45:24;4.47;;;4.27;;
15629;SDS011;7914;50.842;0.166;2022-12-07T02:47:53;4.47;;;4.27;;
15629;SDS011;7914;50.842;0.166;2022-12-07T02:50:23;5.17;;;4.97;;
15629;SDS011;7914;50.842;0.166;2022-12-07T02:52:49;5.37;;;5.17;;
15629;SDS011;7914;50.842;0.166;2022-12-07T02:55:15;4.80;;;4.60;;
15629;SDS011;7914;50.842;0.166;2022-12-07T03:00:49;4.97;;;4.77;;
15629;SDS011;7914;50.842;0.166;2022-12-07T03:03:22;4.97;;;4.77;;
15629;SDS011;7914;50.842;0.166;2022-12-07T03:05:52;5.30;;;5.10;;
15629;SDS011;7914;50.842;0.166;2022-12-07T03:08:42;4.73;;;4.53;;
15629;SDS011;7914;50.842;0.166;2022-12-07T03:11:38;4.90;;;4.70;;
15629;SDS011;7914;50.842;0.166;2022-12-07T03:16:59;4.20;;;4.10;;
15629;SDS011;7914;50.842;0.166;2022-12-07T03:19:32;4.20;;;4.10;;
15629;SDS011;7914;50.842;0.166;2022-12-07T03:22:00;4.90;;;4.70;;
15629;SDS011;7914;50.842;0.166;2022-12-07T03:24:39;5.00;;;4.80;;
15629;SDS011;7914;50.842;0.166;2022-12-07T03:27:13;4.90;;;4.70;;
15629;SDS011;7914;50.842;0.166;2022-12-07T03:30:04;4.80;;;4.60;;
15629;SDS011;7914;50.842;0.166;2022-12-07T03:33:08;4.50;;;4.30;;
15629;SDS011;7914;50.842;0.166;2022-12-07T03:35:43;4.87;;;4.67;;
15629;SDS011;7914;50.842;0.166;2022-12-07T03:38:27;4.63;;;4.43;;
15629;SDS011;7914;50.842;0.166;2022-12-07T03:41:02;4.43;;;4.23;;
15629;SDS011;7914;50.842;0.166;2022-12-07T03:43:32;4.90;;;4.70;;
15629;SDS011;7914;50.842;0.166;2022-12-07T03:48:56;4.70;;;4.50;;
15629;SDS011;7914;50.842;0.166;2022-12-07T03:51:30;5.13;;;4.93;;
15629;SDS011;7914;50.842;0.166;2022-12-07T03:54:13;4.90;;;4.70;;
15629;SDS011;7914;50.842;0.166;2022-12-07T03:56:42;4.70;;;4.50;;
15629;SDS011;7914;50.842;0.166;2022-12-07T03:59:11;5.00;;;4.80;;
15629;SDS011;7914;50.842;0.166;2022-12-07T04:01:37;4.23;;;4.13;;
15629;SDS011;7914;50.842;0.166;2022-12-07T04:04:03;4.80;;;4.60;;
15629;SDS011;7914;50.842;0.166;2022-12-07T04:06:29;5.00;;;4.80;;
15629;SDS011;7914;50.842;0.166;2022-12-07T04:08:54;4.93;;;4.73;;
15629;SDS011;7914;50.842;0.166;2022-12-07T04:11:20;4.57;;;4.37;;
15629;SDS011;7914;50.842;0.166;2022-12-07T04:13:46;4.77;;;4.57;;
15629;SDS011;7914;50.842;0.166;2022-12-07T04:16:30;4.77;;;4.57;;
15629;SDS011;7914;50.842;0.166;2022-12-07T04:18:56;4.90;;;4.70;;
15629;SDS011;7914;50.842;0.166;2022-12-07T04:21:21;4.83;;;4.63;;
15629;SDS011;7914;50.842;0.166;2022-12-07T04:23:47;5.50;;;5.30;;
15629;SDS011;7914;50.842;0.166;2022-12-07T04:26:13;5.40;;;5.20;;
15629;SDS011;7914;50.842;0.166;2022-12-07T04:28:38;5.30;;;5.10;;
15629;SDS011;7914;50.842;0.166;2022-12-07T04:31:04;5.40;;;5.20;;
15629;SDS011;7914;50.842;0.166;2022-12-07T04:33:30;5.40;;;5.20;;
15629;SDS011;7914;50.842;0.166;2022-12-07T04:35:55;5.33;;;5.13;;
15629;SDS011;7914;50.842;0.166;2022-12-07T04:38:21;6.40;;;6.20;;
15629;SDS011;7914;50.842;0.166;2022-12-07T04:40:47;6.30;;;6.10;;
15629;SDS011;7914;50.842;0.166;2022-12-07T04:43:12;5.73;;;5.53;;
15629;SDS011;7914;50.842;0.166;2022-12-07T04:45:38;6.13;;;5.93;;
15629;SDS011;7914;50.842;0.166;2022-12-07T04:48:04;6.10;;;5.90;;
15629;SDS011;7914;50.842;0.166;2022-12-07T04:50:29;5.60;;;5.40;;
15629;SDS011;7914;50.842;0.166;2022-12-07T04:52:55;5.73;;;5.53;;
15629;SDS011;7914;50.842;0.166;2022-12-07T04:55:21;6.03;;;5.83;;
15629;SDS011;7914;50.842;0.166;2022-12-07T04:57:46;6.40;;;6.20;;
15629;SDS011;7914;50.842;0.166;2022-12-07T05:00:12;6.33;;;6.13;;
15629;SDS011;7914;50.842;0.166;2022-12-07T05:02:38;6.07;;;5.87;;
15629;SDS011;7914;50.842;0.166;2022-12-07T05:05:04;5.53;;;5.33;;
15629;SDS011;7914;50.842;0.166;2022-12-07T05:07:29;5.30;;;5.10;;
15629;SDS011;7914;50.842;0.166;2022-12-07T05:09:55;5.37;;;5.17;;
15629;SDS011;7914;50.842;0.166;2022-12-07T05:12:21;5.77;;;5.57;;
15629;SDS011;7914;50.842;0.166;2022-12-07T05:14:46;5.30;;;5.10;;
15629;SDS011;7914;50.842;0.166;2022-12-07T05:17:12;5.87;;;5.67;;
15629;SDS011;7914;50.842;0.166;2022-12-07T05:19:38;5.27;;;5.07;;
15629;SDS011;7914;50.842;0.166;2022-12-07T05:22:03;4.97;;;4.77;;
15629;SDS011;7914;50.842;0.166;2022-12-07T05:24:29;5.43;;;5.23;;
15629;SDS011;7914;50.842;0.166;2022-12-07T05:26:54;5.83;;;5.63;;
15629;SDS011;7914;50.842;0.166;2022-12-07T05:29:20;5.27;;;5.07;;
15629;SDS011;7914;50.842;0.166;2022-12-07T05:31:46;5.00;;;4.80;;
15629;SDS011;7914;50.842;0.166;2022-12-07T05:34:11;5.90;;;5.70;;
15629;SDS011;7914;50.842;0.166;2022-12-07T05:36:38;5.33;;;5.13;;
15629;SDS011;7914;50.842;0.166;2022-12-07T05:39:03;5.27;;;5.07;;
15629;SDS011;7914;50.842;0.166;2022-12-07T05:41:29;4.93;;;4.73;;
15629;SDS011;7914;50.842;0.166;2022-12-07T05:44:14;5.10;;;4.90;;
15629;SDS011;7914;50.842;0.166;2022-12-07T05:46:40;4.80;;;4.60;;
15629;SDS011;7914;50.842;0.166;2022-12-07T05:49:05;4.60;;;4.40;;
15629;SDS011;7914;50.842;0.166;2022-12-07T05:51:31;4.03;;;3.93;;
15629;SDS011;7914;50.842;0.166;2022-12-07T05:53:57;4.10;;;4.00;;
15629;SDS011;7914;50.842;0.166;2022-12-07T05:56:22;4.00;;;3.90;;
15629;SDS011;7914;50.842;0.166;2022-12-07T05:58:48;4.33;;;4.17;;
15629;SDS011;7914;50.842;0.166;2022-12-07T06:01:32;4.17;;;4.07;;
15629;SDS011;7914;50.842;0.166;2022-12-07T06:03:58;4.00;;;3.90;;
15629;SDS011;7914;50.842;0.166;2022-12-07T06:06:24;3.80;;;3.70;;
15629;SDS011;7914;50.842;0.166;2022-12-07T06:08:49;4.07;;;3.97;;
15629;SDS011;7914;50.842;0.166;2022-12-07T06:11:15;4.17;;;4.07;;
15629;SDS011;7914;50.842;0.166;2022-12-07T06:13:59;3.60;;;3.50;;
15629;SDS011;7914;50.842;0.166;2022-12-07T06:16:25;4.53;;;4.33;;
15629;SDS011;7914;50.842;0.166;2022-12-07T06:18:50;3.87;;;3.77;;
15629;SDS011;7914;50.842;0.166;2022-12-07T06:21:16;3.97;;;3.87;;
15629;SDS011;7914;50.842;0.166;2022-12-07T06:23:42;3.50;;;3.40;;
15629;SDS011;7914;50.842;0.166;2022-12-07T06:26:07;3.73;;;3.63;;
15629;SDS011;7914;50.842;0.166;2022-12-07T06:28:33;3.80;;;3.70;;
15629;SDS011;7914;50.842;0.166;2022-12-07T06:30:59;4.03;;;3.93;;
15629;SDS011;7914;50.842;0.166;2022-12-07T06:33:26;3.73;;;3.63;;
15629;SDS011;7914;50.842;0.166;2022-12-07T06:35:52;4.03;;;3.93;;
15629;SDS011;7914;50.842;0.166;2022-12-07T06:38:19;4.07;;;3.97;;
15629;SDS011;7914;50.842;0.166;2022-12-07T06:40:44;3.60;;;3.50;;
15629;SDS011;7914;50.842;0.166;2022-12-07T06:43:10;3.67;;;3.57;;
15629;SDS011;7914;50.842;0.166;2022-12-07T06:45:36;3.40;;;3.30;;
15629;SDS011;7914;50.842;0.166;2022-12-07T06:48:02;3.60;;;3.50;;
15629;SDS011;7914;50.842;0.166;2022-12-07T06:50:27;3.50;;;3.40;;
15629;SDS011;7914;50.842;0.166;2022-12-07T06:52:53;3.93;;;3.83;;
15629;SDS011;7914;50.842;0.166;2022-12-07T06:55:19;3.50;;;3.40;;
15629;SDS011;7914;50.842;0.166;2022-12-07T06:57:44;3.43;;;3.33;;
15629;SDS011;7914;50.842;0.166;2022-12-07T07:00:10;3.70;;;3.60;;
15629;SDS011;7914;50.842;0.166;2022-12-07T07:02:36;3.37;;;3.27;;
15629;SDS011;7914;50.842;0.166;2022-12-07T07:05:02;3.30;;;3.20;;
15629;SDS011;7914;50.842;0.166;2022-12-07T07:07:28;3.37;;;3.27;;
15629;SDS011;7914;50.842;0.166;2022-12-07T07:09:54;3.30;;;3.20;;
15629;SDS011;7914;50.842;0.166;2022-12-07T07:12:19;3.40;;;3.30;;
15629;SDS011;7914;50.842;0.166;2022-12-07T07:14:45;3.50;;;3.40;;
15629;SDS011;7914;50.842;0.166;2022-12-07T07:17:11;4.10;;;4.00;;
15629;SDS011;7914;50.842;0.166;2022-12-07T07:19:37;3.60;;;3.50;;
15629;SDS011;7914;50.842;0.166;2022-12-07T07:22:03;3.93;;;3.83;;
15629;SDS011;7914;50.842;0.166;2022-12-07T07:24:28;3.80;;;3.70;;
15629;SDS011;7914;50.842;0.166;2022-12-07T07:26:54;4.47;;;4.27;;
15629;SDS011;7914;50.842;0.166;2022-12-07T07:29:20;4.60;;;4.40;;
15629;SDS011;7914;50.842;0.166;2022-12-07T07:31:47;3.80;;;3.70;;
15629;SDS011;7914;50.842;0.166;2022-12-07T07:34:12;4.60;;;4.40;;
15629;SDS011;7914;50.842;0.166;2022-12-07T07:36:38;4.17;;;4.07;;
15629;SDS011;7914;50.842;0.166;2022-12-07T07:39:04;4.33;;;4.13;;
15629;SDS011;7914;50.842;0.166;2022-12-07T07:41:30;4.40;;;4.20;;
15629;SDS011;7914;50.842;0.166;2022-12-07T07:43:56;4.17;;;4.07;;
15629;SDS011;7914;50.842;0.166;2022-12-07T07:46:22;4.47;;;4.27;;
15629;SDS011;7914;50.842;0.166;2022-12-07T07:48:47;4.50;;;4.30;;
15629;SDS011;7914;50.842;0.166;2022-12-07T07:51:13;3.90;;;3.80;;
15629;SDS011;7914;50.842;0.166;2022-12-07T07:53:39;4.10;;;4.00;;
15629;SDS011;7914;50.842;0.166;2022-12-07T07:56:05;3.83;;;3.73;;
15629;SDS011;7914;50.842;0.166;2022-12-07T07:58:30;3.87;;;3.77;;
15629;SDS011;7914;50.842;0.166;2022-12-07T08:00:56;4.17;;;4.07;;
15629;SDS011;7914;50.842;0.166;2022-12-07T08:03:22;4.30;;;4.13;;
15629;SDS011;7914;50.842;0.166;2022-12-07T08:05:47;3.83;;;3.73;;
15629;SDS011;7914;50.842;0.166;2022-12-07T08:08:13;4.00;;;3.90;;
15629;SDS011;7914;50.842;0.166;2022-12-07T08:10:39;3.83;;;3.73;;
15629;SDS011;7914;50.842;0.166;2022-12-07T08:13:04;3.90;;;3.80;;
15629;SDS011;7914;50.842;0.166;2022-12-07T08:15:37;4.60;;;4.40;;
15629;SDS011;7914;50.842;0.166;2022-12-07T08:18:03;3.70;;;3.60;;
15629;SDS011;7914;50.842;0.166;2022-12-07T08:20:30;3.80;;;3.70;;
15629;SDS011;7914;50.842;0.166;2022-12-07T08:22:57;4.23;;;4.10;;
15629;SDS011;7914;50.842;0.166;2022-12-07T08:25:23;4.60;;;4.40;;
15629;SDS011;7914;50.842;0.166;2022-12-07T08:27:49;4.47;;;4.27;;
15629;SDS011;7914;50.842;0.166;2022-12-07T08:30:16;4.60;;;4.40;;
15629;SDS011;7914;50.842;0.166;2022-12-07T08:32:41;4.63;;;4.43;;
15629;SDS011;7914;50.842;0.166;2022-12-07T08:35:09;4.10;;;4.00;;
15629;SDS011;7914;50.842;0.166;2022-12-07T08:37:34;4.40;;;4.20;;
15629;SDS011;7914;50.842;0.166;2022-12-07T08:40:00;4.80;;;4.60;;
15629;SDS011;7914;50.842;0.166;2022-12-07T08:42:26;4.70;;;4.50;;
15629;SDS011;7914;50.842;0.166;2022-12-07T08:44:55;4.73;;;4.53;;
15629;SDS011;7914;50.842;0.166;2022-12-07T08:47:22;4.73;;;4.53;;
15629;SDS011;7914;50.842;0.166;2022-12-07T08:49:49;4.70;;;4.50;;
15629;SDS011;7914;50.842;0.166;2022-12-07T08:52:17;4.70;;;4.50;;
15629;SDS011;7914;50.842;0.166;2022-12-07T08:54:43;4.77;;;4.57;;
15629;SDS011;7914;50.842;0.166;2022-12-07T08:57:10;4.97;;;4.77;;
15629;SDS011;7914;50.842;0.166;2022-12-07T08:59:36;4.80;;;4.60;;
15629;SDS011;7914;50.842;0.166;2022-12-07T09:02:03;3.90;;;3.80;;
15629;SDS011;7914;50.842;0.166;2022-12-07T09:04:29;4.10;;;4.00;;
15629;SDS011;7914;50.842;0.166;2022-12-07T09:06:55;4.40;;;4.20;;
15629;SDS011;7914;50.842;0.166;2022-12-07T09:09:21;4.60;;;4.40;;
15629;SDS011;7914;50.842;0.166;2022-12-07T09:11:46;4.87;;;4.67;;
15629;SDS011;7914;50.842;0.166;2022-12-07T09:14:12;4.43;;;4.23;;
15629;SDS011;7914;50.842;0.166;2022-12-07T09:16:38;4.50;;;4.30;;
15629;SDS011;7914;50.842;0.166;2022-12-07T09:19:04;4.23;;;4.10;;
15629;SDS011;7914;50.842;0.166;2022-12-07T09:21:30;3.93;;;3.83;;
15629;SDS011;7914;50.842;0.166;2022-12-07T09:23:56;4.50;;;4.30;;
15629;SDS011;7914;50.842;0.166;2022-12-07T09:26:21;4.43;;;4.23;;
15629;SDS011;7914;50.842;0.166;2022-12-07T09:28:47;4.47;;;4.27;;
15629;SDS011;7914;50.842;0.166;2022-12-07T09:31:13;4.20;;;4.10;;
15629;SDS011;7914;50.842;0.166;2022-12-07T09:33:38;4.13;;;4.03;;
15629;SDS011;7914;50.842;0.166;2022-12-07T09:36:04;4.03;;;3.93;;
15629;SDS011;7914;50.842;0.166;2022-12-07T09:38:30;4.17;;;4.07;;
15629;SDS011;7914;50.842;0.166;2022-12-07T09:40:57;4.40;;;4.20;;
15629;SDS011;7914;50.842;0.166;2022-12-07T09:43:30;4.30;;;4.17;;
15629;SDS011;7914;50.842;0.166;2022-12-07T09:45:56;4.20;;;4.10;;
15629;SDS011;7914;50.842;0.166;2022-12-07T09:48:36;4.47;;;4.27;;
15629;SDS011;7914;50.842;0.166;2022-12-07T09:51:09;4.43;;;4.23;;
15629;SDS011;7914;50.842;0.166;2022-12-07T09:53:41;3.90;;;3.80;;
15629;SDS011;7914;50.842;0.166;2022-12-07T09:56:08;4.00;;;3.90;;
15629;SDS011;7914;50.842;0.166;2022-12-07T09:58:39;3.80;;;3.70;;
15629;SDS011;7914;50.842;0.166;2022-12-07T10:01:09;3.30;;;3.20;;
15629;SDS011;7914;50.842;0.166;2022-12-07T10:03:43;4.27;;;4.10;;
15629;SDS011;7914;50.842;0.166;2022-12-07T10:06:20;3.50;;;3.40;;
15629;SDS011;7914;50.842;0.166;2022-12-07T10:08:46;3.50;;;3.40;;
15629;SDS011;7914;50.842;0.166;2022-12-07T10:11:12;3.50;;;3.40;;
15629;SDS011;7914;50.842;0.166;2022-12-07T10:13:43;3.27;;;3.17;;
15629;SDS011;7914;50.842;0.166;2022-12-07T10:21:48;2.87;;;2.77;;
15629;SDS011;7914;50.842;0.166;2022-12-07T10:24:41;2.90;;;2.80;;
15629;SDS011;7914;50.842;0.166;2022-12-07T10:27:20;2.73;;;2.63;;
15629;SDS011;7914;50.842;0.166;2022-12-07T10:29:52;3.00;;;2.90;;
15629;SDS011;7914;50.842;0.166;2022-12-07T10:34:44;2.90;;;2.80;;
15629;SDS011;7914;50.842;0.166;2022-12-07T10:39:43;3.10;;;3.00;;
15629;SDS011;7914;50.842;0.166;2022-12-07T10:44:43;2.43;;;2.33;;
15629;SDS011;7914;50.842;0.166;2022-12-07T10:47:12;2.40;;;2.30;;
15629;SDS011;7914;50.842;0.166;2022-12-07T11:09:54;2.20;;;2.10;;
15629;SDS011;7914;50.842;0.166;2022-12-07T11:21:23;1.70;;;1.70;;
15629;SDS011;7914;50.842;0.166;2022-12-07T11:26:33;1.40;;;1.40;;
15629;SDS011;7914;50.842;0.166;2022-12-07T11:34:51;1.33;;;1.33;;
15629;SDS011;7914;50.842;0.166;2022-12-07T11:37:30;1.30;;;1.30;;
15629;SDS011;7914;50.842;0.166;2022-12-07T11:40:05;1.30;;;1.30;;
15629;SDS011;7914;50.842;0.166;2022-12-07T11:43:05;1.40;;;1.40;;
15629;SDS011;7914;50.842;0.166;2022-12-07T11:45:41;1.30;;;1.30;;
15629;SDS011;7914;50.842;0.166;2022-12-07T11:48:17;1.20;;;1.20;;
15629;SDS011;7914;50.842;0.166;2022-12-07T11:50:48;1.10;;;1.10;;
15629;SDS011;7914;50.842;0.166;2022-12-07T11:53:38;1.30;;;1.30;;
15629;SDS011;7914;50.842;0.166;2022-12-07T11:58:58;1.40;;;1.40;;
15629;SDS011;7914;50.842;0.166;2022-12-07T12:06:36;1.30;;;1.30;;
15629;SDS011;7914;50.842;0.166;2022-12-07T12:09:16;1.33;;;1.33;;
15629;SDS011;7914;50.842;0.166;2022-12-07T12:14:38;1.10;;;1.10;;
15629;SDS011;7914;50.842;0.166;2022-12-07T12:20:14;1.20;;;1.20;;
15629;SDS011;7914;50.842;0.166;2022-12-07T12:25:52;1.20;;;1.20;;
15629;SDS011;7914;50.842;0.166;2022-12-07T12:28:28;1.10;;;1.10;;
15629;SDS011;7914;50.842;0.166;2022-12-07T12:33:44;1.30;;;1.30;;
15629;SDS011;7914;50.842;0.166;2022-12-07T12:38:51;1.23;;;1.23;;
15629;SDS011;7914;50.842;0.166;2022-12-07T12:49:36;1.10;;;1.10;;
15629;SDS011;7914;50.842;0.166;2022-12-07T12:54:38;1.10;;;1.10;;
15629;SDS011;7914;50.842;0.166;2022-12-07T12:59:35;1.23;;;1.23;;
15629;SDS011;7914;50.842;0.166;2022-12-07T13:04:55;1.30;;;1.30;;
15629;SDS011;7914;50.842;0.166;2022-12-07T13:12:59;1.10;;;1.10;;
15629;SDS011;7914;50.842;0.166;2022-12-07T13:20:52;1.10;;;1.10;;
15629;SDS011;7914;50.842;0.166;2022-12-07T13:23:25;1.00;;;1.00;;
15629;SDS011;7914;50.842;0.166;2022-12-07T13:28:41;1.10;;;1.10;;
15629;SDS011;7914;50.842;0.166;2022-12-07T13:31:14;1.10;;;1.10;;
15629;SDS011;7914;50.842;0.166;2022-12-07T13:33:55;0.90;;;0.90;;
15629;SDS011;7914;50.842;0.166;2022-12-07T13:36:25;1.10;;;1.10;;
15629;SDS011;7914;50.842;0.166;2022-12-07T13:38:56;1.10;;;1.10;;
15629;SDS011;7914;50.842;0.166;2022-12-07T13:41:25;1.10;;;1.10;;
15629;SDS011;7914;50.842;0.166;2022-12-07T13:44:00;0.90;;;0.90;;
15629;SDS011;7914;50.842;0.166;2022-12-07T13:49:18;0.90;;;0.90;;
15629;SDS011;7914;50.842;0.166;2022-12-07T13:51:43;0.90;;;0.90;;
15629;SDS011;7914;50.842;0.166;2022-12-07T13:54:10;0.90;;;0.90;;
15629;SDS011;7914;50.842;0.166;2022-12-07T13:56:37;1.10;;;1.10;;
15629;SDS011;7914;50.842;0.166;2022-12-07T13:59:10;1.10;;;1.10;;
15629;SDS011;7914;50.842;0.166;2022-12-07T14:01:40;1.07;;;1.07;;
15629;SDS011;7914;50.842;0.166;2022-12-07T14:07:23;1.07;;;1.07;;
15629;SDS011;7914;50.842;0.166;2022-12-07T14:09:54;1.00;;;1.00;;
15629;SDS011;7914;50.842;0.166;2022-12-07T14:12:30;1.13;;;1.13;;
15629;SDS011;7914;50.842;0.166;2022-12-07T14:14:58;0.97;;;0.97;;
15629;SDS011;7914;50.842;0.166;2022-12-07T14:17:26;1.00;;;1.00;;
15629;SDS011;7914;50.842;0.166;2022-12-07T14:19:56;1.10;;;1.10;;
15629;SDS011;7914;50.842;0.166;2022-12-07T14:27:47;1.00;;;1.00;;
15629;SDS011;7914;50.842;0.166;2022-12-07T14:30:20;1.00;;;1.00;;
15629;SDS011;7914;50.842;0.166;2022-12-07T14:32:46;1.00;;;1.00;;
15629;SDS011;7914;50.842;0.166;2022-12-07T14:35:16;1.10;;;1.10;;
15629;SDS011;7914;50.842;0.166;2022-12-07T14:37:43;0.90;;;0.90;;
15629;SDS011;7914;50.842;0.166;2022-12-07T14:40:13;1.00;;;1.00;;
15629;SDS011;7914;50.842;0.166;2022-12-07T14:42:46;0.93;;;0.93;;
15629;SDS011;7914;50.842;0.166;2022-12-07T14:45:16;1.10;;;1.10;;
15629;SDS011;7914;50.842;0.166;2022-12-07T14:47:44;1.00;;;1.00;;
15629;SDS011;7914;50.842;0.166;2022-12-07T14:50:11;1.10;;;1.10;;
15629;SDS011;7914;50.842;0.166;2022-12-07T14:52:43;0.90;;;0.90;;
15629;SDS011;7914;50.842;0.166;2022-12-07T14:55:36;1.10;;;1.10;;
15629;SDS011;7914;50.842;0.166;2022-12-07T14:58:02;1.03;;;1.03;;
15629;SDS011;7914;50.842;0.166;2022-12-07T15:00:28;1.10;;;1.10;;
15629;SDS011;7914;50.842;0.166;2022-12-07T15:02:54;1.20;;;1.20;;
15629;SDS011;7914;50.842;0.166;2022-12-07T15:05:20;1.10;;;1.10;;
15629;SDS011;7914;50.842;0.166;2022-12-07T15:07:46;1.00;;;1.00;;
15629;SDS011;7914;50.842;0.166;2022-12-07T15:10:17;1.00;;;1.00;;
15629;SDS011;7914;50.842;0.166;2022-12-07T15:12:44;0.90;;;0.90;;
15629;SDS011;7914;50.842;0.166;2022-12-07T15:15:10;1.03;;;1.03;;
15629;SDS011;7914;50.842;0.166;2022-12-07T15:17:36;1.00;;;1.00;;
15629;SDS011;7914;50.842;0.166;2022-12-07T15:20:02;0.90;;;0.90;;
15629;SDS011;7914;50.842;0.166;2022-12-07T15:22:28;1.00;;;1.00;;
15629;SDS011;7914;50.842;0.166;2022-12-07T15:24:56;1.10;;;1.10;;
15629;SDS011;7914;50.842;0.166;2022-12-07T15:27:22;0.90;;;0.90;;
15629;SDS011;7914;50.842;0.166;2022-12-07T15:29:48;0.90;;;0.90;;
15629;SDS011;7914;50.842;0.166;2022-12-07T15:32:13;1.00;;;1.00;;
15629;SDS011;7914;50.842;0.166;2022-12-07T15:34:39;1.00;;;1.00;;
15629;SDS011;7914;50.842;0.166;2022-12-07T15:37:05;1.00;;;1.00;;
15629;SDS011;7914;50.842;0.166;2022-12-07T15:39:31;1.10;;;1.10;;
15629;SDS011;7914;50.842;0.166;2022-12-07T15:41:56;1.10;;;1.10;;
15629;SDS011;7914;50.842;0.166;2022-12-07T15:44:22;1.00;;;1.00;;
15629;SDS011;7914;50.842;0.166;2022-12-07T15:47:07;0.90;;;0.90;;
15629;SDS011;7914;50.842;0.166;2022-12-07T15:49:32;1.07;;;1.07;;
15629;SDS011;7914;50.842;0.166;2022-12-07T15:51:58;0.80;;;0.80;;
15629;SDS011;7914;50.842;0.166;2022-12-07T15:54:24;0.90;;;0.90;;
15629;SDS011;7914;50.842;0.166;2022-12-07T15:56:51;1.00;;;1.00;;
15629;SDS011;7914;50.842;0.166;2022-12-07T15:59:18;0.87;;;0.87;;
15629;SDS011;7914;50.842;0.166;2022-12-07T16:01:43;1.00;;;1.00;;
15629;SDS011;7914;50.842;0.166;2022-12-07T16:04:09;1.00;;;1.00;;
15629;SDS011;7914;50.842;0.166;2022-12-07T16:06:35;0.90;;;0.90;;
15629;SDS011;7914;50.842;0.166;2022-12-07T16:09:01;1.00;;;1.00;;
15629;SDS011;7914;50.842;0.166;2022-12-07T16:11:27;1.00;;;1.00;;
15629;SDS011;7914;50.842;0.166;2022-12-07T16:13:53;1.10;;;1.10;;
15629;SDS011;7914;50.842;0.166;2022-12-07T16:16:19;1.07;;;1.07;;
15629;SDS011;7914;50.842;0.166;2022-12-07T16:18:47;1.30;;;1.30;;
15629;SDS011;7914;50.842;0.166;2022-12-07T16:21:13;1.10;;;1.10;;
15629;SDS011;7914;50.842;0.166;2022-12-07T16:23:40;1.07;;;1.07;;
15629;SDS011;7914;50.842;0.166;2022-12-07T16:28:33;1.20;;;1.20;;
15629;SDS011;7914;50.842;0.166;2022-12-07T16:31:09;1.20;;;1.20;;
15629;SDS011;7914;50.842;0.166;2022-12-07T16:33:38;1.30;;;1.30;;
15629;SDS011;7914;50.842;0.166;2022-12-07T16:36:05;1.20;;;1.20;;
15629;SDS011;7914;50.842;0.166;2022-12-07T16:38:32;1.37;;;1.37;;
15629;SDS011;7914;50.842;0.166;2022-12-07T16:40:58;1.13;;;1.13;;
15629;SDS011;7914;50.842;0.166;2022-12-07T16:43:24;1.30;;;1.30;;
15629;SDS011;7914;50.842;0.166;2022-12-07T16:45:50;1.20;;;1.20;;
15629;SDS011;7914;50.842;0.166;2022-12-07T16:48:17;1.30;;;1.30;;
15629;SDS011;7914;50.842;0.166;2022-12-07T16:50:43;1.50;;;1.50;;
15629;SDS011;7914;50.842;0.166;2022-12-07T16:53:10;1.30;;;1.30;;
15629;SDS011;7914;50.842;0.166;2022-12-07T16:55:40;1.37;;;1.37;;
15629;SDS011;7914;50.842;0.166;2022-12-07T16:58:09;1.20;;;1.20;;
15629;SDS011;7914;50.842;0.166;2022-12-07T17:00:35;1.10;;;1.10;;
15629;SDS011;7914;50.842;0.166;2022-12-07T17:03:01;1.13;;;1.13;;
15629;SDS011;7914;50.842;0.166;2022-12-07T17:05:28;1.20;;;1.20;;
15629;SDS011;7914;50.842;0.166;2022-12-07T17:07:54;1.00;;;1.00;;
15629;SDS011;7914;50.842;0.166;2022-12-07T17:10:20;1.13;;;1.13;;
15629;SDS011;7914;50.842;0.166;2022-12-07T17:12:46;1.20;;;1.20;;
15629;SDS011;7914;50.842;0.166;2022-12-07T17:15:12;1.30;;;1.30;;
15629;SDS011;7914;50.842;0.166;2022-12-07T17:17:41;1.10;;;1.10;;
15629;SDS011;7914;50.842;0.166;2022-12-07T17:20:12;1.10;;;1.10;;
15629;SDS011;7914;50.842;0.166;2022-12-07T17:22:39;1.17;;;1.17;;
15629;SDS011;7914;50.842;0.166;2022-12-07T17:25:04;1.30;;;1.30;;
15629;SDS011;7914;50.842;0.166;2022-12-07T17:27:31;1.20;;;1.20;;
15629;SDS011;7914;50.842;0.166;2022-12-07T17:29:56;1.20;;;1.20;;
15629;SDS011;7914;50.842;0.166;2022-12-07T17:32:22;1.10;;;1.10;;